Time;durP1;ratioP1;P1;durP2;ratioP2;P2;SDS_P1;SDS_P2;PMS_P1;PMS_P2;Temp;Humidity;BMP_temperature;BMP_pressure;BME280_temperature;BME280_humidity;BME280_pressure;Samples;Min_cycle;Max_cycle;Signal;HPM_P1;HPM_P2
2023/11/06 00:00:16;;;;;;;5.07;1.75;;;;;;;11.55;72.86;97476.34;4975496;28;20045;-77
2023/11/06 00:02:44;;;;;;;6.07;1.85;;;;;;;11.56;72.75;97473.53;4975569;28;20043;-77
2023/11/06 00:05:11;;;;;;;3.88;1.58;;;;;;;11.55;72.72;97477.13;4975707;28;20055;-77
2023/11/06 00:07:38;;;;;;;5.13;1.80;;;;;;;11.55;72.78;97492.16;4975251;28;20046;-77
2023/11/06 00:10:04;;;;;;;7.68;1.75;;;;;;;11.55;72.92;97486.88;4975268;28;20089;-76
2023/11/06 00:12:31;;;;;;;6.68;1.55;;;;;;;11.55;72.69;97492.16;4975383;28;20054;-77
2023/11/06 00:14:57;;;;;;;5.10;1.88;;;;;;;11.55;72.76;97497.41;4975408;28;20082;-77
2023/11/06 00:17:24;;;;;;;5.53;1.83;;;;;;;11.54;72.60;97487.81;4975267;28;20058;-78
2023/11/06 00:19:51;;;;;;;5.35;1.60;;;;;;;11.54;72.59;97501.00;4975182;28;20050;-77
2023/11/06 00:22:17;;;;;;;5.80;1.85;;;;;;;11.52;72.63;97503.81;4975417;28;20047;-78
2023/11/06 00:24:44;;;;;;;7.82;1.70;;;;;;;11.51;72.52;97514.50;4975413;28;20052;-77
2023/11/06 00:27:11;;;;;;;3.15;1.38;;;;;;;11.49;72.88;97506.75;4975172;28;20043;-77
2023/11/06 00:29:41;;;;;;;5.82;1.60;;;;;;;11.46;72.78;97525.47;4975331;28;20325;-78
2023/11/06 00:32:07;;;;;;;5.63;2.10;;;;;;;11.48;73.14;97515.63;4974763;28;20086;-77
2023/11/06 00:34:34;;;;;;;14.70;2.00;;;;;;;11.48;73.37;97513.00;4975034;28;20062;-78
2023/11/06 00:37:00;;;;;;;6.82;1.70;;;;;;;11.50;73.48;97518.94;4974978;28;20051;-78
2023/11/06 00:39:27;;;;;;;5.05;1.92;;;;;;;11.52;73.47;97519.63;4974999;28;20145;-77
2023/11/06 00:41:53;;;;;;;10.20;2.90;;;;;;;11.53;73.52;97523.91;4974571;28;20130;-77
2023/11/06 00:44:20;;;;;;;7.78;2.10;;;;;;;11.57;73.34;97529.69;4974799;28;20042;-76
2023/11/06 00:46:46;;;;;;;4.90;2.00;;;;;;;11.58;73.43;97528.72;4974671;28;20047;-78
2023/11/06 00:49:13;;;;;;;12.55;2.58;;;;;;;11.59;73.39;97525.94;4974683;28;20050;-78
2023/11/06 00:51:39;;;;;;;9.55;2.30;;;;;;;11.62;73.36;97542.44;4974421;28;20428;-78
2023/11/06 00:54:06;;;;;;;8.32;2.22;;;;;;;11.65;73.46;97539.47;4974789;28;20097;-77
2023/11/06 00:56:33;;;;;;;5.93;2.05;;;;;;;11.67;73.56;97535.72;4974457;28;20043;-77
2023/11/06 00:58:59;;;;;;;5.53;2.00;;;;;;;11.69;73.37;97546.09;4974538;28;20519;-77
2023/11/06 01:01:28;;;;;;;4.70;2.13;;;;;;;11.71;73.34;97544.97;4974185;28;20065;-78
2023/11/06 01:03:56;;;;;;;4.50;2.10;;;;;;;11.73;73.38;97537.75;4974582;28;20043;-77
2023/11/06 01:06:24;;;;;;;8.00;2.00;;;;;;;11.76;73.29;97551.59;4974369;28;20054;-77
2023/11/06 01:08:50;;;;;;;4.80;2.47;;;;;;;11.79;73.33;97556.59;4973838;28;20070;-77
2023/11/06 01:11:18;;;;;;;10.40;2.85;;;;;;;11.80;73.43;97556.44;4974212;28;20053;-76
2023/11/06 01:13:44;;;;;;;8.70;2.65;;;;;;;11.81;73.38;97558.09;4974268;28;20053;-78
2023/11/06 01:16:11;;;;;;;9.27;2.95;;;;;;;11.83;73.22;97555.31;4974182;28;20050;-77
2023/11/06 01:18:37;;;;;;;6.90;2.70;;;;;;;11.85;73.20;97556.00;4974369;28;20098;-77
2023/11/06 01:21:05;;;;;;;10.05;2.30;;;;;;;11.85;73.02;97564.72;4973828;28;20125;-76
2023/11/06 01:23:31;;;;;;;8.75;2.80;;;;;;;11.87;73.25;97569.84;4974072;28;20487;-77
2023/11/06 01:25:58;;;;;;;4.95;2.72;;;;;;;11.88;73.25;97574.13;4974141;28;20082;-77
2023/11/06 01:28:25;;;;;;;10.65;2.58;;;;;;;11.90;73.07;97579.25;4973856;28;20047;-77
2023/11/06 01:30:51;;;;;;;8.70;2.70;;;;;;;11.91;73.10;97587.03;4973979;28;20070;-78
2023/11/06 01:33:18;;;;;;;11.05;3.42;;;;;;;11.92;73.25;97593.94;4974014;28;20161;-77
2023/11/06 01:35:45;;;;;;;5.47;2.55;;;;;;;11.94;73.28;97599.06;4973876;28;20047;-77
2023/11/06 01:38:12;;;;;;;9.77;2.80;;;;;;;11.95;73.07;97598.94;4973780;28;20051;-78
2023/11/06 01:40:39;;;;;;;8.77;2.30;;;;;;;11.96;73.14;97602.41;4972270;28;20446;-77
2023/11/06 01:43:06;;;;;;;6.80;2.20;;;;;;;11.97;73.16;97604.06;4973706;28;20523;-77
2023/11/06 01:45:35;;;;;;;9.25;2.63;;;;;;;11.98;73.07;97600.44;4973860;28;20047;-77
2023/11/06 01:48:03;;;;;;;5.45;2.53;;;;;;;11.98;72.91;97610.97;4973715;28;20689;-79
2023/11/06 01:50:33;;;;;;;8.38;2.95;;;;;;;12.00;72.83;97606.38;4973531;28;20054;-77
2023/11/06 01:53:06;;;;;;;6.78;2.28;;;;;;;11.98;72.50;97605.72;4973709;28;20443;-77
2023/11/06 01:55:34;;;;;;;8.70;2.83;;;;;;;12.03;72.95;97610.53;4973539;28;20047;-77
2023/11/06 01:58:01;;;;;;;9.35;2.33;;;;;;;12.02;72.92;97612.34;4973643;28;20050;-77
2023/11/06 02:00:28;;;;;;;7.10;2.42;;;;;;;12.03;73.02;97616.63;4973314;28;20043;-75
2023/11/06 02:02:55;;;;;;;5.90;1.98;;;;;;;12.05;73.01;97608.56;4973454;28;20086;-77
2023/11/06 02:05:22;;;;;;;6.72;2.08;;;;;;;12.05;72.91;97616.47;4973464;28;20074;-77
2023/11/06 02:07:48;;;;;;;7.05;2.10;;;;;;;12.05;73.12;97625.25;4973195;28;20435;-77
2023/11/06 02:10:17;;;;;;;11.45;2.30;;;;;;;12.06;72.95;97624.28;4973378;28;20054;-77
2023/11/06 02:12:47;;;;;;;7.45;2.33;;;;;;;12.06;72.91;97619.00;4973414;28;20086;-78
2023/11/06 02:15:14;;;;;;;8.55;2.20;;;;;;;12.08;72.82;97624.13;4973319;28;20129;-77
2023/11/06 02:17:43;;;;;;;5.60;1.90;;;;;;;12.08;72.82;97622.31;4973135;28;20113;-78
2023/11/06 02:20:11;;;;;;;5.50;1.98;;;;;;;12.08;72.79;97630.22;4971868;28;20410;-78
2023/11/06 02:22:43;;;;;;;5.10;1.95;;;;;;;12.07;72.35;97631.19;4972890;28;20046;-77
2023/11/06 02:25:12;;;;;;;7.78;2.30;;;;;;;12.08;72.40;97640.75;4973005;28;20479;-78
2023/11/06 02:27:40;;;;;;;6.72;2.60;;;;;;;12.10;72.74;97638.81;4973009;28;20045;-77
2023/11/06 02:30:08;;;;;;;7.13;1.85;;;;;;;12.11;72.71;97639.63;4972760;28;20110;-78
2023/11/06 02:32:34;;;;;;;10.10;2.20;;;;;;;12.11;72.67;97639.63;4972812;28;20089;-76
2023/11/06 02:35:01;;;;;;;9.27;2.00;;;;;;;12.11;72.81;97651.03;4972732;28;20054;-78
2023/11/06 02:37:28;;;;;;;7.22;1.85;;;;;;;12.11;72.63;97648.38;4972903;28;20506;-77
2023/11/06 02:39:55;;;;;;;6.53;1.85;;;;;;;12.12;72.66;97651.88;4972717;28;20047;-76
2023/11/06 02:42:21;;;;;;;7.57;1.95;;;;;;;12.12;72.69;97657.94;4972710;28;20050;-78
2023/11/06 02:44:48;;;;;;;5.80;2.00;;;;;;;12.12;72.52;97657.94;4972707;28;20138;-79
2023/11/06 02:47:14;;;;;;;5.18;1.50;;;;;;;12.11;72.51;97660.72;4972550;28;20562;-77
2023/11/06 02:49:41;;;;;;;3.33;1.25;;;;;;;12.11;72.60;97663.38;4972793;28;20050;-77
2023/11/06 02:52:08;;;;;;;4.15;1.45;;;;;;;12.10;72.51;97659.91;4972315;28;20839;-78
2023/11/06 02:54:34;;;;;;;4.50;1.83;;;;;;;12.10;72.23;97659.09;4972488;28;20058;-77
2023/11/06 02:57:02;;;;;;;5.53;1.65;;;;;;;12.09;72.44;97668.81;4972515;28;20049;-77
2023/11/06 02:59:30;;;;;;;11.15;1.67;;;;;;;12.08;72.26;97667.13;4972517;28;20050;-77
2023/11/06 03:01:57;;;;;;;7.40;1.85;;;;;;;12.07;72.26;97676.03;4972144;28;20051;-78
2023/11/06 03:04:24;;;;;;;9.45;1.50;;;;;;;12.08;72.46;97680.31;4972350;28;20113;-77
2023/11/06 03:06:50;;;;;;;4.70;1.30;;;;;;;12.07;72.24;97683.94;4972502;28;20072;-77
2023/11/06 03:09:17;;;;;;;5.78;1.50;;;;;;;12.06;72.31;97700.75;4972519;28;20122;-77
2023/11/06 03:11:44;;;;;;;2.55;1.40;;;;;;;12.06;72.28;97699.91;4972063;28;20054;-78
2023/11/06 03:14:10;;;;;;;4.75;1.23;;;;;;;12.05;72.08;97695.59;4972321;28;20101;-78
2023/11/06 03:16:38;;;;;;;6.90;1.48;;;;;;;12.04;72.11;97697.38;4972159;28;20510;-77
2023/11/06 03:19:05;;;;;;;6.93;1.48;;;;;;;12.04;72.26;97707.13;4972451;28;20039;-77
2023/11/06 03:21:32;;;;;;;4.38;1.67;;;;;;;12.03;72.28;97706.28;4970600;28;20054;-79
2023/11/06 03:23:58;;;;;;;5.05;2.10;;;;;;;12.02;72.19;97704.63;4972294;28;20047;-77
2023/11/06 03:26:32;;;;;;;8.90;1.40;;;;;;;12.03;72.25;97705.47;4972049;28;20526;-77
2023/11/06 03:28:58;;;;;;;3.67;1.40;;;;;;;12.03;72.31;97722.09;4972269;28;20105;-78
2023/11/06 03:31:25;;;;;;;4.85;1.50;;;;;;;12.03;72.37;97722.09;4972895;28;20475;-77
2023/11/06 03:33:52;;;;;;;3.00;1.33;;;;;;;12.04;72.26;97733.50;4976357;28;20038;-77
2023/11/06 03:36:19;;;;;;;8.25;2.05;;;;;;;12.04;72.25;97725.59;4976194;28;20055;-77
2023/11/06 03:38:46;;;;;;;6.88;1.77;;;;;;;12.03;72.01;97743.19;4976138;28;20046;-79
2023/11/06 03:41:12;;;;;;;3.55;1.40;;;;;;;12.03;72.25;97739.75;4975677;28;20475;-77
2023/11/06 03:43:39;;;;;;;7.20;2.05;;;;;;;12.02;72.28;97744.19;4975837;28;20475;-77
2023/11/06 03:46:05;;;;;;;4.15;1.48;;;;;;;12.02;72.23;97740.69;4975854;28;20547;-77
2023/11/06 03:48:33;;;;;;;5.28;1.80;;;;;;;12.02;72.16;97756.53;4976244;28;20047;-77
2023/11/06 03:50:59;;;;;;;5.05;1.90;;;;;;;12.01;72.23;97753.06;4975786;28;20054;-75
2023/11/06 03:53:26;;;;;;;4.97;1.90;;;;;;;12.01;72.19;97761.00;4975785;28;20042;-79
2023/11/06 03:55:52;;;;;;;3.92;1.90;;;;;;;12.01;72.24;97752.22;4975792;28;20047;-77
2023/11/06 03:58:19;;;;;;;5.30;1.73;;;;;;;12.01;72.14;97760.16;4975585;28;20039;-77
2023/11/06 04:00:46;;;;;;;5.50;2.17;;;;;;;11.99;72.21;97762.91;4975419;28;20129;-76
2023/11/06 04:03:13;;;;;;;9.02;2.00;;;;;;;11.99;72.16;97758.50;4974285;28;20046;-77
2023/11/06 04:05:40;;;;;;;9.85;2.60;;;;;;;11.99;72.28;97765.56;4975581;28;20131;-77
2023/11/06 04:08:06;;;;;;;5.15;1.90;;;;;;;12.00;72.36;97764.56;4975311;28;20043;-78
2023/11/06 04:10:33;;;;;;;7.35;2.30;;;;;;;12.00;72.42;97769.84;4975178;28;20047;-78
2023/11/06 04:13:00;;;;;;;5.30;2.15;;;;;;;12.00;72.38;97767.22;4975386;28;20467;-76
2023/11/06 04:15:26;;;;;;;9.10;2.13;;;;;;;12.00;72.35;97764.56;4975467;28;20101;-77
2023/11/06 04:17:53;;;;;;;5.05;2.00;;;;;;;12.02;72.33;97772.34;4975107;28;20447;-78
2023/11/06 04:20:19;;;;;;;7.03;1.95;;;;;;;12.03;72.29;97779.31;4973836;28;20038;-79
2023/11/06 04:22:46;;;;;;;6.05;2.17;;;;;;;12.03;72.58;97780.13;4975097;28;20431;-76
2023/11/06 04:25:13;;;;;;;4.80;2.15;;;;;;;12.03;72.31;97790.66;4975050;28;20047;-78
2023/11/06 04:27:39;;;;;;;6.43;2.25;;;;;;;12.04;72.59;97771.22;4973602;28;20121;-76
2023/11/06 04:30:10;;;;;;;6.75;2.55;;;;;;;12.05;72.36;97785.25;4974972;28;20059;-78
2023/11/06 04:32:36;;;;;;;7.18;2.70;;;;;;;12.06;72.30;97790.41;4973647;28;20093;-77
2023/11/06 04:35:03;;;;;;;6.70;2.42;;;;;;;12.06;72.54;97782.50;4974939;28;20054;-77
2023/11/06 04:37:30;;;;;;;9.02;2.20;;;;;;;12.08;72.34;97787.63;4974718;28;20778;-76
2023/11/06 04:39:57;;;;;;;7.03;2.28;;;;;;;12.09;72.41;97805.94;4974576;28;20419;-78
2023/11/06 04:42:24;;;;;;;10.75;2.58;;;;;;;12.10;72.11;97812.88;4973094;28;20089;-77
2023/11/06 04:44:51;;;;;;;9.63;2.90;;;;;;;12.11;72.30;97811.91;4974420;28;20047;-77
2023/11/06 04:47:17;;;;;;;8.30;2.70;;;;;;;12.11;72.37;97803.97;4974581;28;20109;-78
2023/11/06 04:49:44;;;;;;;4.38;2.17;;;;;;;12.12;72.24;97808.28;4974627;28;20049;-77
2023/11/06 04:52:11;;;;;;;6.10;2.90;;;;;;;12.12;72.27;97824.09;4974448;28;20400;-77
2023/11/06 04:54:41;;;;;;;5.20;2.78;;;;;;;12.12;71.91;97810.91;4974545;28;20086;-76
2023/11/06 04:57:07;;;;;;;7.85;3.08;;;;;;;12.15;72.07;97816.88;4974615;28;20854;-77
2023/11/06 04:59:34;;;;;;;9.43;2.88;;;;;;;12.14;72.16;97820.50;4974565;28;20538;-78
2023/11/06 05:02:00;;;;;;;11.82;3.17;;;;;;;12.16;72.07;97822.03;4974141;28;20050;-77
2023/11/06 05:04:27;;;;;;;5.72;2.55;;;;;;;12.17;72.03;97825.47;4974448;28;20046;-78
2023/11/06 05:06:55;;;;;;;7.25;3.08;;;;;;;12.17;72.19;97830.75;4974320;28;20046;-76
2023/11/06 05:09:22;;;;;;;8.27;2.75;;;;;;;12.17;72.00;97833.38;4974550;28;20129;-76
2023/11/06 05:11:49;;;;;;;7.57;2.75;;;;;;;12.17;72.24;97843.94;4974100;28;20058;-77
2023/11/06 05:14:15;;;;;;;7.45;2.83;;;;;;;12.17;72.03;97849.22;4974323;28;20059;-76
2023/11/06 05:16:45;;;;;;;8.15;2.67;;;;;;;12.17;72.03;97842.13;4974178;28;20085;-77
2023/11/06 05:19:12;;;;;;;6.45;3.30;;;;;;;12.18;71.95;97848.25;4974203;28;20047;-77
2023/11/06 05:21:39;;;;;;;8.88;3.03;;;;;;;12.18;72.00;97845.63;4973704;28;20859;-78
2023/11/06 05:24:06;;;;;;;7.63;2.97;;;;;;;12.17;72.04;97847.41;4974185;28;20046;-77
2023/11/06 05:26:33;;;;;;;6.88;2.90;;;;;;;12.18;72.07;97848.25;4974025;28;20038;-77
2023/11/06 05:29:00;;;;;;;8.65;2.83;;;;;;;12.18;71.81;97853.53;4974151;28;20050;-77
2023/11/06 05:31:28;;;;;;;10.57;3.25;;;;;;;12.17;71.90;97850.06;4972482;28;20134;-77
2023/11/06 05:33:55;;;;;;;6.15;2.55;;;;;;;12.18;71.96;97849.06;4973896;28;20085;-78
2023/11/06 05:36:22;;;;;;;7.88;2.90;;;;;;;12.19;71.91;97860.47;4973623;28;20078;-77
2023/11/06 05:38:49;;;;;;;8.27;2.70;;;;;;;12.19;72.03;97857.81;4973888;28;20050;-78
2023/11/06 05:41:15;;;;;;;6.13;2.58;;;;;;;12.19;72.04;97861.28;4973507;28;20407;-77
2023/11/06 05:43:42;;;;;;;5.47;2.38;;;;;;;12.19;71.98;97879.72;4973621;28;20049;-77
2023/11/06 05:46:09;;;;;;;6.18;2.75;;;;;;;12.20;71.99;97885.84;4973604;28;20047;-77
2023/11/06 05:48:35;;;;;;;7.88;2.50;;;;;;;12.19;71.90;97889.47;4973560;28;20050;-77
2023/11/06 05:51:03;;;;;;;7.05;2.75;;;;;;;12.19;71.88;97890.28;4973226;28;20047;-77
2023/11/06 05:53:29;;;;;;;9.38;2.70;;;;;;;12.19;71.55;97902.66;4972399;28;20082;-78
2023/11/06 05:55:56;;;;;;;5.47;2.47;;;;;;;12.18;71.78;97899.19;4973348;28;20125;-77
2023/11/06 05:58:22;;;;;;;8.88;2.50;;;;;;;12.17;71.75;97908.06;4972062;28;20038;-77
2023/11/06 06:00:49;;;;;;;9.27;2.35;;;;;;;12.17;71.64;97905.44;4973111;28;20050;-77
2023/11/06 06:03:16;;;;;;;8.10;2.65;;;;;;;12.17;71.83;97909.88;4973080;28;20148;-78
2023/11/06 06:05:43;;;;;;;6.53;2.30;;;;;;;12.17;71.65;97912.50;4973433;28;20053;-77
2023/11/06 06:08:11;;;;;;;5.70;2.15;;;;;;;12.16;71.69;97921.41;4973198;28;20484;-78
2023/11/06 06:10:39;;;;;;;7.93;2.47;;;;;;;12.15;71.59;97930.31;4973153;28;20050;-77
2023/11/06 06:13:05;;;;;;;5.43;2.30;;;;;;;12.14;71.51;97937.38;5101471;23;20127;-75
2023/11/06 06:15:32;;;;;;;6.93;2.13;;;;;;;12.14;71.55;97939.19;5164634;23;20022;-79
2023/11/06 06:17:59;;;;;;;6.28;2.50;;;;;;;12.12;71.23;97937.50;4973574;28;20105;-77
2023/11/06 06:20:25;;;;;;;4.40;1.95;;;;;;;12.11;71.58;97937.66;4972981;28;20055;-76
2023/11/06 06:22:52;;;;;;;7.68;2.25;;;;;;;12.10;71.53;97943.91;4972908;28;20117;-76
2023/11/06 06:25:18;;;;;;;7.93;2.00;;;;;;;12.10;71.42;97950.03;4972788;28;20543;-77
2023/11/06 06:27:45;;;;;;;5.63;2.17;;;;;;;12.09;71.22;97963.34;4972686;28;20133;-78
2023/11/06 06:30:14;;;;;;;7.40;2.20;;;;;;;12.08;71.45;97957.22;4972543;28;20058;-78
2023/11/06 06:32:42;;;;;;;7.97;1.75;;;;;;;12.07;71.41;97954.75;4972875;28;20059;-77
2023/11/06 06:35:09;;;;;;;5.57;1.95;;;;;;;12.06;71.35;97964.47;4972906;28;20326;-77
2023/11/06 06:37:37;;;;;;;5.85;1.35;;;;;;;12.05;71.35;97965.44;4972792;28;20089;-77
2023/11/06 06:40:08;;;;;;;6.55;1.65;;;;;;;12.05;71.37;97973.34;4971274;28;20051;-77
2023/11/06 06:42:35;;;;;;;3.45;1.73;;;;;;;12.04;71.09;97976.91;4972585;28;20101;-77
2023/11/06 06:45:02;;;;;;;6.10;1.45;;;;;;;12.02;71.05;97981.50;4972404;28;20051;-77
2023/11/06 06:47:28;;;;;;;7.95;1.70;;;;;;;12.01;70.82;97985.13;4972680;28;20047;-78
2023/11/06 06:49:55;;;;;;;3.90;1.13;;;;;;;11.99;70.71;97984.41;4972398;28;20058;-78
2023/11/06 06:52:22;;;;;;;5.93;1.60;;;;;;;11.95;70.68;97997.06;4972410;28;20051;-77
2023/11/06 06:54:48;;;;;;;6.07;1.88;;;;;;;11.93;70.85;97990.25;4972286;28;20061;-77
2023/11/06 06:57:15;;;;;;;4.28;1.20;;;;;;;11.91;70.63;98000.09;4972271;28;20491;-77
2023/11/06 06:59:43;;;;;;;5.32;1.42;;;;;;;11.87;70.33;98007.47;4972119;28;20503;-78
2023/11/06 07:02:17;;;;;;;3.45;1.45;;;;;;;11.83;70.47;98009.56;4972506;28;20077;-77
2023/11/06 07:04:44;;;;;;;2.40;1.02;;;;;;;11.81;70.60;98021.22;4970955;28;20054;-77
2023/11/06 07:07:11;;;;;;;6.78;1.15;;;;;;;11.78;70.61;98014.38;4971706;28;20072;-78
2023/11/06 07:09:37;;;;;;;7.25;1.40;;;;;;;11.76;70.84;98010.22;4972139;28;20145;-79
2023/11/06 07:12:04;;;;;;;2.33;1.13;;;;;;;11.73;70.81;98029.78;4971768;28;20051;-76
2023/11/06 07:14:32;;;;;;;4.93;1.15;;;;;;;11.72;71.04;98022.88;4972190;28;20480;-77
2023/11/06 07:17:08;;;;;;;5.45;1.40;;;;;;;11.72;71.11;98025.50;4972072;28;20076;-77
2023/11/06 07:19:35;;;;;;;7.00;1.30;;;;;;;11.70;70.86;98023.00;4972223;28;20117;-77
2023/11/06 07:22:01;;;;;;;5.78;1.27;;;;;;;11.70;71.13;98025.63;4971840;28;20051;-75
2023/11/06 07:24:28;;;;;;;7.15;1.20;;;;;;;11.71;71.05;98037.03;4971914;28;20050;-78
2023/11/06 07:26:56;;;;;;;5.47;1.80;;;;;;;11.70;70.93;98030.09;4972152;28;20059;-78
2023/11/06 07:29:23;;;;;;;4.75;1.38;;;;;;;11.70;70.94;98028.28;4972159;28;20059;-77
2023/11/06 07:31:50;;;;;;;4.85;1.30;;;;;;;11.71;71.16;98026.47;4970297;28;20053;-77
2023/11/06 07:34:20;;;;;;;7.40;1.25;;;;;;;11.70;70.78;98038.81;4971920;28;20113;-78
2023/11/06 07:36:49;;;;;;;6.85;1.38;;;;;;;11.71;70.98;98039.66;4971795;28;20050;-78
2023/11/06 07:39:17;;;;;;;6.65;1.52;;;;;;;11.72;70.99;98041.31;4971661;28;20047;-77
2023/11/06 07:41:44;;;;;;;4.93;1.23;;;;;;;11.73;71.14;98040.34;4971479;28;20058;-77
2023/11/06 07:44:11;;;;;;;7.35;1.92;;;;;;;11.74;71.24;98042.03;4971759;28;20090;-77
2023/11/06 07:46:37;;;;;;;5.10;1.50;;;;;;;11.76;71.28;98040.06;4971764;28;20563;-78
2023/11/06 07:49:04;;;;;;;9.35;1.67;;;;;;;11.79;71.07;98052.16;4971727;28;20090;-77
2023/11/06 07:51:30;;;;;;;5.93;1.80;;;;;;;11.81;71.36;98035.22;4971486;28;20051;-77
2023/11/06 07:53:57;;;;;;;4.78;1.40;;;;;;;11.84;71.28;98050.75;4971585;28;20078;-76
2023/11/06 07:56:23;;;;;;;5.75;1.50;;;;;;;11.88;71.14;98058.41;4971886;28;20107;-77
2023/11/06 07:58:50;;;;;;;6.38;1.95;;;;;;;11.89;70.87;98052.97;4971906;28;20094;-77
2023/11/06 08:01:17;;;;;;;7.65;1.65;;;;;;;11.90;70.87;98059.09;4971328;28;20051;-77
2023/11/06 08:03:44;;;;;;;5.22;1.77;;;;;;;11.91;71.03;98047.56;4971496;28;20102;-76
2023/11/06 08:06:12;;;;;;;6.75;1.88;;;;;;;11.93;71.17;98053.53;4971537;28;20135;-77
2023/11/06 08:08:40;;;;;;;7.90;2.35;;;;;;;11.95;71.10;98056.84;4971641;28;20117;-78
2023/11/06 08:11:07;;;;;;;9.10;2.10;;;;;;;11.97;71.03;98062.84;4971573;28;20066;-77
2023/11/06 08:13:34;;;;;;;11.25;2.17;;;;;;;11.99;71.13;98068.78;4971611;28;20055;-77
2023/11/06 08:16:01;;;;;;;9.55;2.15;;;;;;;12.03;71.00;98074.66;4971632;28;20152;-77
2023/11/06 08:18:27;;;;;;;9.18;2.03;;;;;;;12.05;70.94;98072.69;4972977;28;20105;-78
2023/11/06 08:20:54;;;;;;;11.23;2.38;;;;;;;12.05;70.88;98070.94;4975044;28;20451;-77
2023/11/06 08:23:20;;;;;;;5.35;1.70;;;;;;;12.08;70.67;98075.91;4975084;28;20511;-78
2023/11/06 08:25:47;;;;;;;10.07;1.88;;;;;;;12.11;70.67;98080.91;4975367;28;20090;-76
2023/11/06 08:28:13;;;;;;;8.98;2.00;;;;;;;12.14;70.64;98092.16;4975146;28;20059;-76
2023/11/06 08:30:40;;;;;;;10.85;2.63;;;;;;;12.15;70.64;98084.09;4974808;28;20529;-78
2023/11/06 08:33:06;;;;;;;5.70;1.85;;;;;;;12.18;70.82;98096.19;4975463;28;20109;-77
2023/11/06 08:35:33;;;;;;;10.73;1.85;;;;;;;12.19;70.61;98105.78;4974928;28;20051;-77
2023/11/06 08:38:02;;;;;;;9.30;2.03;;;;;;;12.20;70.34;98097.72;4975043;28;20051;-77
2023/11/06 08:40:29;;;;;;;9.82;1.95;;;;;;;12.23;70.67;98101.88;4974734;28;20097;-77
2023/11/06 08:42:55;;;;;;;10.90;1.98;;;;;;;12.24;70.28;98103.53;4974871;28;20089;-78
2023/11/06 08:45:22;;;;;;;11.38;2.00;;;;;;;12.25;70.19;98105.19;4974916;28;20050;-77
2023/11/06 08:47:49;;;;;;;11.13;2.10;;;;;;;12.24;69.90;98098.25;4974624;28;20062;-77
2023/11/06 08:50:16;;;;;;;14.02;3.42;;;;;;;12.26;70.09;98112.13;4974804;28;20047;-77
2023/11/06 08:52:43;;;;;;;9.63;1.92;;;;;;;12.27;70.13;98112.97;4974825;28;20129;-76
2023/11/06 08:55:09;;;;;;;8.93;1.90;;;;;;;12.27;70.34;98113.81;4974635;28;20087;-77
2023/11/06 08:57:36;;;;;;;14.70;2.08;;;;;;;12.29;70.31;98125.06;4974570;28;20054;-78
2023/11/06 09:00:05;;;;;;;8.60;2.05;;;;;;;12.31;70.09;98117.00;4974395;28;20055;-77
2023/11/06 09:02:32;;;;;;;8.40;1.88;;;;;;;12.31;70.05;98123.13;4974313;28;20058;-77
2023/11/06 09:04:59;;;;;;;8.18;2.33;;;;;;;12.32;69.78;98135.34;4974617;28;20074;-78
2023/11/06 09:07:27;;;;;;;10.15;2.33;;;;;;;12.33;69.71;98133.50;4974350;28;20054;-78
2023/11/06 09:09:53;;;;;;;11.15;2.45;;;;;;;12.34;69.88;98122.81;4974353;28;20086;-78
2023/11/06 09:12:20;;;;;;;15.60;2.30;;;;;;;12.35;69.92;98129.78;4974404;28;20057;-77
2023/11/06 09:14:47;;;;;;;12.45;2.15;;;;;;;12.37;69.97;98134.91;4974257;28;20488;-77
2023/11/06 09:17:13;;;;;;;5.63;1.60;;;;;;;12.41;70.19;98141.56;4973969;28;20063;-77
2023/11/06 09:19:40;;;;;;;9.73;2.17;;;;;;;12.45;69.54;98135.03;4974181;28;20046;-77
2023/11/06 09:22:06;;;;;;;9.20;2.38;;;;;;;12.51;70.07;98136.28;4974037;28;20110;-77
2023/11/06 09:24:33;;;;;;;10.95;2.08;;;;;;;12.56;70.18;98154.38;4974000;28;20472;-77
2023/11/06 09:26:59;;;;;;;5.70;2.05;;;;;;;12.61;69.92;98149.50;4974250;28;20082;-78
2023/11/06 09:29:26;;;;;;;13.00;2.80;;;;;;;12.67;69.86;98166.59;4973452;28;20106;-78
2023/11/06 09:31:54;;;;;;;4.88;1.50;;;;;;;12.70;69.05;98168.91;4973986;28;20063;-78
2023/11/06 09:34:20;;;;;;;9.70;1.75;;;;;;;12.72;68.83;98161.72;4974121;28;20050;-77
2023/11/06 09:36:47;;;;;;;8.07;1.83;;;;;;;12.75;68.50;98161.44;4973899;28;20047;-77
2023/11/06 09:39:13;;;;;;;8.55;2.08;;;;;;;12.79;68.42;98172.53;4973833;28;20047;-77
2023/11/06 09:41:40;;;;;;;7.25;2.17;;;;;;;12.82;68.46;98167.78;4973513;28;20447;-77
2023/11/06 09:44:07;;;;;;;10.68;2.42;;;;;;;12.82;68.34;98181.00;4973546;28;20055;-78
2023/11/06 09:46:35;;;;;;;7.85;1.70;;;;;;;12.86;68.08;98174.47;4973858;28;20054;-77
2023/11/06 09:49:14;;;;;;;10.90;2.03;;;;;;;12.89;66.83;98178.63;4973944;28;20061;-77
2023/11/06 09:51:43;;;;;;;11.15;2.03;;;;;;;12.96;68.31;98178.88;4973393;28;20511;-78
2023/11/06 09:54:11;;;;;;;8.35;2.03;;;;;;;13.01;68.65;98195.16;4973618;28;20077;-77
2023/11/06 09:56:45;;;;;;;15.00;3.03;;;;;;;13.04;67.01;98184.28;4973329;28;20058;-79
2023/11/06 09:59:12;;;;;;;8.15;2.00;;;;;;;13.14;68.47;98195.69;4972374;28;20082;-77
2023/11/06 10:01:39;;;;;;;14.55;3.13;;;;;;;13.21;68.00;98189.81;4973248;28;20523;-77
2023/11/06 10:04:07;;;;;;;11.90;2.25;;;;;;;13.28;68.17;98196.22;4973303;28;20843;-77
2023/11/06 10:06:34;;;;;;;9.23;1.65;;;;;;;13.36;68.15;98208.69;4973329;28;20055;-76
2023/11/06 10:09:19;;;;;;;6.60;1.80;;;;;;;13.37;66.11;98200.63;4973263;28;20491;-78
2023/11/06 10:11:46;;;;;;;10.65;2.22;;;;;;;13.47;67.37;98197.94;4973308;28;20046;-76
2023/11/06 10:14:13;;;;;;;11.45;1.65;;;;;;;13.51;67.58;98217.88;4973321;28;20081;-78
2023/11/06 10:16:39;;;;;;;8.43;1.75;;;;;;;13.54;67.16;98203.53;4973323;28;20054;-76
2023/11/06 10:19:14;;;;;;;12.75;2.35;;;;;;;13.52;65.42;98198.38;4973042;28;20484;-76
2023/11/06 10:21:42;;;;;;;8.68;2.15;;;;;;;13.55;66.49;98207.81;4972623;28;20055;-76
2023/11/06 10:24:11;;;;;;;10.27;1.85;;;;;;;13.54;66.34;98217.56;4973193;28;20062;-77
2023/11/06 10:26:39;;;;;;;8.77;2.05;;;;;;;13.53;66.52;98215.09;4972930;28;20050;-77
2023/11/06 10:29:09;;;;;;;10.85;1.65;;;;;;;13.52;65.78;98216.03;4973105;28;20107;-77
2023/11/06 10:31:41;;;;;;;14.05;2.33;;;;;;;13.52;65.72;98216.03;4972814;28;20125;-77
2023/11/06 10:34:26;;;;;;;7.25;2.05;;;;;;;13.50;65.15;98216.19;4972765;28;20061;-77
2023/11/06 10:37:05;;;;;;;10.50;1.88;;;;;;;13.54;65.08;98212.28;4972612;28;20054;-77
2023/11/06 10:39:31;;;;;;;13.27;1.92;;;;;;;13.61;66.79;98228.38;4972871;28;20047;-77
2023/11/06 10:42:03;;;;;;;5.47;1.83;;;;;;;13.63;65.97;98212.38;4971978;28;20125;-77
2023/11/06 10:44:36;;;;;;;10.18;2.05;;;;;;;13.69;66.46;98222.38;4971239;28;20051;-76
2023/11/06 10:47:09;;;;;;;10.15;2.00;;;;;;;13.81;66.65;98225.66;4972808;28;20090;-77
2023/11/06 10:49:47;;;;;;;10.13;2.17;;;;;;;13.94;66.11;98222.66;4971416;28;20084;-76
2023/11/06 10:52:16;;;;;;;10.88;2.00;;;;;;;14.07;66.70;98204.66;4972668;28;20144;-77
2023/11/06 10:54:47;;;;;;;10.40;2.20;;;;;;;14.17;66.10;98220.47;4972614;28;20090;-76
2023/11/06 10:57:17;;;;;;;9.55;2.28;;;;;;;14.24;64.48;98211.94;4972330;28;20506;-76
2023/11/06 10:59:44;;;;;;;6.22;1.55;;;;;;;14.33;65.52;98224.28;4972584;28;20078;-78
2023/11/06 11:02:37;;;;;;;9.38;1.73;;;;;;;14.35;62.66;98232.06;4972272;28;20061;-76
2023/11/06 11:05:04;;;;;;;;;;;;;;;14.38;62.33;98240.53;4972807;28;20050;-76
2023/11/06 11:07:31;;;;;;;9.82;2.10;;;;;;;14.44;64.32;98233.81;4972184;28;19965;-77
2023/11/06 11:10:00;;;;;;;9.48;2.40;;;;;;;14.41;64.29;98228.81;4972050;28;20053;-76
2023/11/06 11:12:27;;;;;;;12.32;1.98;;;;;;;14.41;64.80;98237.59;4972414;28;20079;-76
2023/11/06 11:14:54;;;;;;;11.15;2.47;;;;;;;14.40;64.17;98233.28;4972159;28;20094;-77
2023/11/06 11:17:21;;;;;;;9.20;1.70;;;;;;;14.40;64.01;98245.69;4972181;28;20583;-77
2023/11/06 11:19:54;;;;;;;12.48;2.47;;;;;;;14.34;62.19;98241.81;4971986;28;20047;-79
2023/11/06 11:22:21;;;;;;;;;;;;;;;14.32;60.81;98252.53;4972506;28;20495;-77
2023/11/06 11:24:50;;;;;;;10.90;2.15;;;;;;;14.36;63.58;98236.38;4970980;28;19930;-78
2023/11/06 11:27:21;;;;;;;7.43;1.77;;;;;;;14.30;63.38;98251.03;4972077;28;20054;-77
2023/11/06 11:29:53;;;;;;;15.43;2.47;;;;;;;14.25;62.52;98245.34;4972176;28;20058;-77
2023/11/06 11:32:21;;;;;;;;;;;;;;;14.23;61.95;98266.66;4972380;28;20093;-76